createdAt,value
2018-03-20T00:00:12.330Z,0.00
2018-03-20T00:01:12.299Z,0.00
2018-03-20T00:02:12.268Z,0.00
2018-03-20T00:03:12.243Z,0.00
2018-03-20T00:04:12.207Z,0.00
2018-03-20T00:05:12.176Z,0.00
2018-03-20T00:06:12.144Z,0.00
2018-03-20T00:07:12.115Z,0.00
2018-03-20T00:08:12.084Z,0.00
2018-03-20T00:09:12.053Z,0.00
2018-03-20T00:10:12.022Z,0.00
2018-03-20T00:11:11.990Z,0.00
2018-03-20T00:12:11.960Z,0.00
2018-03-20T00:13:11.930Z,0.00
2018-03-20T00:14:11.898Z,0.00
2018-03-20T00:15:11.868Z,0.00
2018-03-20T00:16:11.837Z,0.00
2018-03-20T00:17:11.806Z,0.00
2018-03-20T00:18:11.775Z,0.00
2018-03-20T00:19:11.744Z,0.00
2018-03-20T00:20:11.720Z,0.00
2018-03-20T00:21:11.682Z,0.00
2018-03-20T00:22:11.650Z,0.00
2018-03-20T00:23:11.620Z,0.00
2018-03-20T00:24:11.590Z,0.00
2018-03-20T00:25:11.561Z,0.00
2018-03-20T00:26:11.530Z,0.00
2018-03-20T00:27:11.498Z,0.00
2018-03-20T00:28:11.467Z,0.00
2018-03-20T00:29:11.440Z,0.00
2018-03-20T00:30:11.405Z,0.00
2018-03-20T00:31:11.377Z,0.00
2018-03-20T00:32:11.344Z,0.00
2018-03-20T00:33:11.315Z,0.00
2018-03-20T00:34:12.782Z,0.00
2018-03-20T00:35:11.250Z,0.00
2018-03-20T00:36:11.221Z,0.00
2018-03-20T00:37:11.190Z,0.00
2018-03-20T00:38:11.159Z,0.00
2018-03-20T00:39:11.127Z,0.00
2018-03-20T00:40:11.097Z,0.00
2018-03-20T00:41:11.067Z,0.00
2018-03-20T00:42:11.035Z,0.00
2018-03-20T00:43:11.004Z,0.00
2018-03-20T00:44:10.975Z,0.00
2018-03-20T00:45:10.942Z,0.00
2018-03-20T00:46:10.911Z,0.00
2018-03-20T00:47:10.880Z,0.00
2018-03-20T00:48:10.851Z,0.00
2018-03-20T00:49:10.819Z,0.00
2018-03-20T00:50:10.787Z,0.00
2018-03-20T00:51:11.507Z,0.00
2018-03-20T00:52:10.727Z,0.00
2018-03-20T00:53:10.696Z,0.00
2018-03-20T00:54:10.663Z,0.00
2018-03-20T00:55:10.634Z,0.00
2018-03-20T00:56:10.601Z,0.00
2018-03-20T00:57:10.573Z,0.00
2018-03-20T00:58:10.540Z,0.00
2018-03-20T00:59:10.510Z,0.00
2018-03-20T01:00:10.477Z,0.00
2018-03-20T01:01:10.447Z,0.00
2018-03-20T01:02:10.416Z,0.00
2018-03-20T01:03:10.385Z,0.00
2018-03-20T01:04:10.354Z,0.00
2018-03-20T01:05:10.326Z,0.00
2018-03-20T01:06:10.299Z,0.00
2018-03-20T01:07:10.262Z,0.00
2018-03-20T01:08:10.231Z,0.00
2018-03-20T01:09:10.200Z,0.00
2018-03-20T01:10:10.169Z,0.00
2018-03-20T01:11:10.138Z,0.00
2018-03-20T01:12:10.107Z,0.00
2018-03-20T01:13:10.076Z,0.00
2018-03-20T01:14:10.045Z,0.00
2018-03-20T01:15:10.014Z,0.00
2018-03-20T01:16:09.986Z,0.00
2018-03-20T01:17:09.954Z,0.00
2018-03-20T01:18:10.671Z,0.00
2018-03-20T01:19:09.889Z,0.00
2018-03-20T01:20:09.860Z,0.00
2018-03-20T01:21:09.826Z,0.00
2018-03-20T01:22:09.794Z,0.00
2018-03-20T01:23:09.767Z,0.00
2018-03-20T01:24:09.733Z,0.00
2018-03-20T01:25:09.700Z,0.00
2018-03-20T01:26:09.664Z,0.00
2018-03-20T01:27:09.643Z,0.00
2018-03-20T01:28:09.607Z,0.00
2018-03-20T01:29:09.584Z,0.00
2018-03-20T01:30:09.548Z,0.00
2018-03-20T01:31:09.517Z,0.00
2018-03-20T01:32:09.488Z,0.00
2018-03-20T01:33:09.458Z,0.00
2018-03-20T01:34:09.424Z,0.00
2018-03-20T01:35:09.393Z,0.00
2018-03-20T01:36:09.361Z,0.00
2018-03-20T01:37:09.332Z,0.00
2018-03-20T01:38:09.301Z,0.00
2018-03-20T01:39:09.272Z,0.00
2018-03-20T01:41:10.060Z,0.00
2018-03-20T01:42:09.177Z,0.00
2018-03-20T01:43:09.146Z,0.00
2018-03-20T01:44:09.115Z,0.00
2018-03-20T01:45:09.085Z,0.00
2018-03-20T01:46:09.063Z,0.00
2018-03-20T01:47:09.022Z,0.00
2018-03-20T01:48:08.992Z,0.00
2018-03-20T01:49:08.962Z,0.00
2018-03-20T01:50:08.930Z,0.00
2018-03-20T01:51:08.899Z,0.00
2018-03-20T01:52:08.868Z,0.00
2018-03-20T01:53:08.838Z,0.00
2018-03-20T01:54:08.809Z,0.00
2018-03-20T01:55:08.775Z,0.00
2018-03-20T01:56:08.745Z,0.00
2018-03-20T01:57:08.713Z,0.00
2018-03-20T01:58:08.681Z,0.00
2018-03-20T01:59:08.649Z,0.00
2018-03-20T02:00:08.619Z,0.00
2018-03-20T02:01:08.590Z,0.00
2018-03-20T02:02:08.558Z,0.00
2018-03-20T02:03:08.527Z,0.00
2018-03-20T02:04:08.496Z,0.00
2018-03-20T02:05:08.465Z,0.00
2018-03-20T02:06:08.432Z,0.00
2018-03-20T02:07:08.404Z,0.00
2018-03-20T02:08:08.375Z,0.00
2018-03-20T02:09:08.342Z,0.00
2018-03-20T02:10:08.310Z,0.00
2018-03-20T02:11:08.279Z,0.00
2018-03-20T02:12:08.246Z,0.00
2018-03-20T02:13:08.216Z,0.00
2018-03-20T02:14:08.186Z,0.00
2018-03-20T02:15:08.153Z,0.00
2018-03-20T02:16:08.125Z,0.00
2018-03-20T02:17:08.091Z,0.00
2018-03-20T02:18:08.061Z,0.00
2018-03-20T02:19:08.030Z,0.00
2018-03-20T02:20:08.006Z,0.00
2018-03-20T02:21:07.969Z,0.00
2018-03-20T02:22:07.937Z,0.00
2018-03-20T02:23:07.905Z,0.00
2018-03-20T02:24:07.877Z,0.00
2018-03-20T02:25:07.844Z,0.00
2018-03-20T02:26:07.814Z,0.00
2018-03-20T02:27:07.782Z,0.00
2018-03-20T02:28:07.751Z,0.00
2018-03-20T02:29:07.719Z,0.00
2018-03-20T02:30:07.690Z,0.00
2018-03-20T02:31:07.658Z,0.00
2018-03-20T02:32:07.634Z,0.00
2018-03-20T02:33:07.600Z,0.00
2018-03-20T02:34:07.564Z,0.00
2018-03-20T02:35:07.533Z,0.00
2018-03-20T02:36:07.503Z,0.00
2018-03-20T02:37:07.475Z,0.00
2018-03-20T02:38:07.440Z,0.00
2018-03-20T02:39:07.409Z,0.00
2018-03-20T02:40:07.376Z,0.00
2018-03-20T02:41:07.346Z,0.00
2018-03-20T02:42:07.316Z,0.00
2018-03-20T02:43:07.284Z,0.00
2018-03-20T02:44:07.253Z,0.00
2018-03-20T02:45:07.221Z,0.00
2018-03-20T02:46:07.190Z,0.00
2018-03-20T02:47:07.161Z,0.00
2018-03-20T02:48:07.129Z,0.00
2018-03-20T02:49:07.098Z,0.00
2018-03-20T02:50:07.067Z,0.00
2018-03-20T02:51:07.092Z,0.00
2018-03-20T02:52:07.004Z,0.00
2018-03-20T02:53:06.973Z,0.00
2018-03-20T02:54:06.948Z,0.00
2018-03-20T02:55:06.911Z,0.00
2018-03-20T02:56:06.879Z,0.00
2018-03-20T02:57:06.848Z,0.00
2018-03-20T02:58:06.817Z,0.00
2018-03-20T02:59:06.785Z,0.00
2018-03-20T03:00:06.755Z,0.00
2018-03-20T03:01:06.724Z,0.00
2018-03-20T03:02:06.693Z,0.00
2018-03-20T03:03:06.659Z,0.00
2018-03-20T03:04:06.632Z,0.00
2018-03-20T03:05:06.600Z,0.00
2018-03-20T03:06:06.566Z,0.00
2018-03-20T03:07:06.537Z,0.00
2018-03-20T03:08:06.504Z,0.00
2018-03-20T03:09:06.476Z,0.00
2018-03-20T03:10:06.442Z,0.00
2018-03-20T03:11:06.410Z,0.00
2018-03-20T03:12:06.381Z,0.00
2018-03-20T03:13:06.349Z,0.00
2018-03-20T03:14:06.317Z,0.00
2018-03-20T03:15:06.288Z,0.00
2018-03-20T03:16:06.254Z,0.00
2018-03-20T03:17:06.225Z,0.00
2018-03-20T03:18:06.193Z,0.00
2018-03-20T03:19:06.160Z,0.00
2018-03-20T03:20:06.131Z,0.00
2018-03-20T03:21:06.098Z,0.00
2018-03-20T03:22:06.066Z,0.00
2018-03-20T03:23:06.036Z,0.00
2018-03-20T03:24:06.005Z,0.00
2018-03-20T03:25:05.973Z,0.00
2018-03-20T03:26:05.941Z,0.00
2018-03-20T03:27:05.909Z,0.00
2018-03-20T03:28:05.879Z,0.00
2018-03-20T03:29:05.849Z,0.00
2018-03-20T03:30:05.824Z,0.00
2018-03-20T03:31:05.789Z,0.00
2018-03-20T03:32:05.755Z,0.00
2018-03-20T03:33:05.722Z,0.00
2018-03-20T03:34:05.690Z,0.00
2018-03-20T03:35:05.660Z,0.00
2018-03-20T03:36:05.628Z,0.00
2018-03-20T03:37:05.596Z,0.00
2018-03-20T03:38:05.565Z,0.00
2018-03-20T03:39:05.534Z,0.00
2018-03-20T03:40:05.509Z,0.00
2018-03-20T03:41:05.473Z,0.00
2018-03-20T03:42:05.441Z,0.00
2018-03-20T03:43:05.410Z,0.00
2018-03-20T03:44:05.378Z,0.00
2018-03-20T03:45:05.346Z,0.00
2018-03-20T03:46:05.316Z,0.00
2018-03-20T03:47:05.285Z,0.00
2018-03-20T03:48:05.253Z,0.00
2018-03-20T03:49:05.224Z,0.00
2018-03-20T03:50:05.190Z,0.00
2018-03-20T03:51:05.159Z,0.00
2018-03-20T03:52:05.131Z,0.00
2018-03-20T03:53:05.096Z,0.00
2018-03-20T03:54:05.065Z,0.00
2018-03-20T03:55:05.034Z,0.00
2018-03-20T03:56:05.003Z,0.00
2018-03-20T03:57:04.972Z,0.00
2018-03-20T03:58:04.940Z,0.00
2018-03-20T03:59:04.909Z,0.00
2018-03-20T04:00:04.878Z,0.00
2018-03-20T04:01:04.848Z,0.00
2018-03-20T04:02:04.816Z,0.00
2018-03-20T04:03:04.784Z,0.00
2018-03-20T04:04:04.753Z,0.00
2018-03-20T04:05:04.724Z,0.00
2018-03-20T04:06:04.690Z,0.00
2018-03-20T04:07:04.659Z,0.00
2018-03-20T04:08:04.628Z,0.00
2018-03-20T04:09:04.599Z,0.00
2018-03-20T04:10:04.566Z,0.00
2018-03-20T04:11:04.538Z,0.00
2018-03-20T04:12:04.504Z,0.00
2018-03-20T04:13:04.472Z,0.00
2018-03-20T04:14:04.442Z,0.00
2018-03-20T04:15:04.409Z,0.00
2018-03-20T04:16:04.379Z,0.00
2018-03-20T04:17:04.352Z,0.00
2018-03-20T04:18:04.315Z,0.00
2018-03-20T04:19:04.284Z,0.00
2018-03-20T04:20:04.253Z,0.00
2018-03-20T04:21:04.223Z,0.00
2018-03-20T04:22:04.190Z,0.00
2018-03-20T04:23:04.160Z,0.00
2018-03-20T04:24:04.128Z,0.00
2018-03-20T04:25:04.102Z,0.00
2018-03-20T04:26:04.065Z,0.00
2018-03-20T04:27:04.034Z,0.00
2018-03-20T04:28:04.003Z,0.00
2018-03-20T04:29:03.973Z,0.00
2018-03-20T04:30:03.942Z,0.00
2018-03-20T04:31:03.908Z,0.00
2018-03-20T04:32:03.879Z,0.00
2018-03-20T04:33:03.848Z,0.00
2018-03-20T04:34:03.816Z,0.00
2018-03-20T04:35:03.785Z,0.00
2018-03-20T04:36:03.753Z,0.00
2018-03-20T04:37:03.722Z,0.00
2018-03-20T04:38:03.691Z,0.00
2018-03-20T04:39:03.660Z,0.00
2018-03-20T04:40:03.629Z,0.00
2018-03-20T04:41:03.597Z,0.00
2018-03-20T04:42:03.564Z,0.00
2018-03-20T04:43:03.534Z,0.00
2018-03-20T04:44:03.502Z,0.00
2018-03-20T04:45:03.472Z,0.00
2018-03-20T04:46:03.439Z,0.00
2018-03-20T04:47:03.408Z,0.00
2018-03-20T04:48:03.379Z,0.00
2018-03-20T04:49:03.347Z,0.00
2018-03-20T04:50:03.319Z,0.00
2018-03-20T04:51:03.285Z,0.00
2018-03-20T04:52:03.254Z,0.00
2018-03-20T04:53:03.222Z,0.00
2018-03-20T04:54:03.191Z,0.00
2018-03-20T04:55:03.159Z,0.00
2018-03-20T04:56:03.127Z,0.00
2018-03-20T04:57:03.100Z,0.00
2018-03-20T04:58:03.065Z,0.00
2018-03-20T04:59:03.034Z,0.00
2018-03-20T05:00:03.006Z,0.00
2018-03-20T05:01:02.971Z,0.00
2018-03-20T05:02:02.940Z,0.00
2018-03-20T05:03:02.908Z,4.00
2018-03-20T05:04:02.878Z,4.00
2018-03-20T05:05:02.847Z,4.00
2018-03-20T05:06:02.815Z,4.00
2018-03-20T05:07:02.784Z,4.00
2018-03-20T05:08:02.752Z,4.00
2018-03-20T05:09:02.722Z,4.00
2018-03-20T05:10:02.690Z,4.00
2018-03-20T05:11:02.658Z,4.00
2018-03-20T05:12:02.631Z,4.00
2018-03-20T05:13:02.597Z,4.00
2018-03-20T05:14:02.564Z,4.00
2018-03-20T05:15:02.533Z,8.00
2018-03-20T05:16:02.502Z,4.00
2018-03-20T05:17:02.472Z,8.00
2018-03-20T05:18:02.439Z,8.00
2018-03-20T05:19:02.408Z,8.00
2018-03-20T05:20:03.127Z,12.00
2018-03-20T05:21:02.347Z,12.00
2018-03-20T05:22:02.314Z,12.00
2018-03-20T05:23:02.288Z,12.00
2018-03-20T05:24:02.254Z,20.00
2018-03-20T05:25:02.221Z,20.00
2018-03-20T05:26:02.190Z,20.00
2018-03-20T05:27:02.159Z,20.00
2018-03-20T05:28:02.128Z,28.00
2018-03-20T05:29:02.096Z,28.00
2018-03-20T05:30:02.063Z,32.00
2018-03-20T05:31:02.032Z,40.00
2018-03-20T05:32:02.002Z,44.00
2018-03-20T05:33:01.973Z,48.00
2018-03-20T05:34:01.939Z,52.00
2018-03-20T05:35:01.908Z,56.00
2018-03-20T05:36:01.876Z,60.00
2018-03-20T05:37:01.845Z,68.00
2018-03-20T05:38:01.813Z,76.00
2018-03-20T05:39:01.783Z,84.00
2018-03-20T05:40:01.757Z,96.00
2018-03-20T05:41:01.720Z,104.00
2018-03-20T05:42:01.695Z,108.00
2018-03-20T05:43:01.658Z,116.00
2018-03-20T05:44:01.626Z,120.00
2018-03-20T05:45:01.597Z,128.00
2018-03-20T05:46:01.564Z,132.00
2018-03-20T05:47:01.532Z,136.00
2018-03-20T05:48:01.504Z,148.00
2018-03-20T05:49:01.471Z,160.00
2018-03-20T05:50:01.440Z,164.00
2018-03-20T05:51:01.410Z,168.00
2018-03-20T05:52:01.378Z,184.00
2018-03-20T05:53:01.349Z,212.00
2018-03-20T05:54:01.315Z,236.00
2018-03-20T05:55:01.284Z,268.00
2018-03-20T05:56:01.252Z,284.00
2018-03-20T05:57:01.222Z,292.00
2018-03-20T05:58:01.190Z,304.00
2018-03-20T05:59:01.164Z,316.00
2018-03-20T06:00:01.128Z,324.00
2018-03-20T06:01:01.095Z,348.00
2018-03-20T06:02:01.065Z,388.00
2018-03-20T06:03:01.033Z,408.00
2018-03-20T06:04:01.003Z,416.00
2018-03-20T06:05:00.972Z,436.00
2018-03-20T06:06:00.940Z,456.00
2018-03-20T06:07:00.909Z,484.00
2018-03-20T06:08:00.876Z,496.00
2018-03-20T06:09:00.847Z,496.00
2018-03-20T06:10:00.814Z,540.00
2018-03-20T06:11:00.784Z,568.00
2018-03-20T06:12:00.751Z,580.00
2018-03-20T06:13:00.722Z,624.00
2018-03-20T06:14:00.689Z,680.00
2018-03-20T06:15:00.657Z,748.00
2018-03-20T06:16:00.627Z,788.00
2018-03-20T06:17:00.597Z,800.00
2018-03-20T06:18:00.564Z,804.00
2018-03-20T06:19:00.533Z,788.00
2018-03-20T06:20:00.503Z,792.00
2018-03-20T06:21:00.472Z,792.00
2018-03-20T06:22:00.440Z,756.00
2018-03-20T06:23:00.408Z,736.00
2018-03-20T06:24:01.128Z,764.00
2018-03-20T06:25:00.347Z,796.00
2018-03-20T06:26:00.316Z,852.00
2018-03-20T06:27:00.283Z,888.00
2018-03-20T06:28:00.252Z,948.00
2018-03-20T06:29:00.222Z,984.00
2018-03-20T06:30:00.191Z,1004.00
2018-03-20T06:31:00.159Z,1016.00
2018-03-20T06:32:00.130Z,1028.00
2018-03-20T06:33:00.097Z,1056.00
2018-03-20T06:34:00.065Z,1100.00
2018-03-20T06:35:00.036Z,1160.00
2018-03-20T06:36:00.005Z,1188.00
2018-03-20T06:36:59.977Z,1196.00
2018-03-20T06:37:59.964Z,1264.00
2018-03-20T06:38:59.911Z,1356.00
2018-03-20T06:40:00.631Z,1348.00
2018-03-20T06:40:59.873Z,1348.00
2018-03-20T06:41:59.819Z,1328.00
2018-03-20T06:42:59.788Z,1324.00
2018-03-20T06:43:59.757Z,1380.00
2018-03-20T06:44:59.726Z,1604.00
2018-03-20T06:45:59.694Z,1724.00
2018-03-20T06:46:59.666Z,1724.00
2018-03-20T06:47:59.633Z,1740.00
2018-03-20T06:48:59.603Z,1880.00
2018-03-20T06:49:59.570Z,1940.00
2018-03-20T06:50:59.586Z,1920.00
2018-03-20T06:51:59.509Z,1868.00
2018-03-20T06:52:59.479Z,2012.00
2018-03-20T06:53:59.451Z,2072.00
2018-03-20T06:54:59.416Z,2108.00
2018-03-20T06:55:59.385Z,2048.00
2018-03-20T06:56:59.354Z,2004.00
2018-03-20T06:57:59.321Z,1860.00
2018-03-20T06:58:59.292Z,1784.00
2018-03-20T06:59:59.264Z,1720.00
2018-03-20T07:00:59.230Z,1664.00
2018-03-20T07:01:59.199Z,1704.00
2018-03-20T07:02:59.168Z,1932.00
2018-03-20T07:03:59.139Z,2080.00
2018-03-20T07:04:59.116Z,2076.00
2018-03-20T07:05:59.075Z,2156.00
2018-03-20T07:06:59.794Z,2476.00
2018-03-20T07:07:59.014Z,2424.00
2018-03-20T07:08:58.985Z,2392.00
2018-03-20T07:09:58.952Z,2336.00
2018-03-20T07:10:58.921Z,2352.00
2018-03-20T07:11:58.890Z,2352.00
2018-03-20T07:12:58.867Z,2456.00
2018-03-20T07:13:58.827Z,2696.00
2018-03-20T07:14:58.801Z,2848.00
2018-03-20T07:15:58.766Z,2860.00
2018-03-20T07:16:58.737Z,2868.00
2018-03-20T07:17:58.706Z,3000.00
2018-03-20T07:18:58.677Z,3092.00
2018-03-20T07:19:58.644Z,2988.00
2018-03-20T07:20:58.616Z,2904.00
2018-03-20T07:21:58.582Z,3052.00
2018-03-20T07:22:58.552Z,3148.00
2018-03-20T07:23:58.521Z,3220.00
2018-03-20T07:24:58.491Z,3272.00
2018-03-20T07:25:58.508Z,3456.00
2018-03-20T07:26:58.429Z,3612.00
2018-03-20T07:27:58.400Z,3656.00
2018-03-20T07:28:58.369Z,3492.00
2018-03-20T07:29:58.337Z,3368.00
2018-03-20T07:30:58.307Z,3352.00
2018-03-20T07:31:58.277Z,3404.00
2018-03-20T07:32:58.247Z,3436.00
2018-03-20T07:33:58.216Z,3516.00
2018-03-20T07:34:58.189Z,3640.00
2018-03-20T07:35:58.155Z,3764.00
2018-03-20T07:36:58.125Z,3944.00
2018-03-20T07:37:58.094Z,4236.00
2018-03-20T07:38:58.064Z,4500.00
2018-03-20T07:39:58.053Z,4816.00
2018-03-20T07:40:58.006Z,4892.00
2018-03-20T07:41:57.973Z,4676.00
2018-03-20T07:42:57.942Z,4492.00
2018-03-20T07:43:57.912Z,4140.00
2018-03-20T07:44:57.882Z,4152.00
2018-03-20T07:45:57.851Z,4304.00
2018-03-20T07:46:57.821Z,4232.00
2018-03-20T07:47:57.791Z,4120.00
2018-03-20T07:48:57.761Z,4092.00
2018-03-20T07:49:57.730Z,4344.00
2018-03-20T07:50:57.699Z,4508.00
2018-03-20T07:51:57.670Z,4548.00
2018-03-20T07:52:57.644Z,4472.00
2018-03-20T07:53:57.610Z,4432.00
2018-03-20T07:54:57.579Z,4552.00
2018-03-20T07:55:57.549Z,4640.00
2018-03-20T07:56:57.520Z,4796.00
2018-03-20T07:57:57.489Z,4924.00
2018-03-20T07:58:57.460Z,4996.00
2018-03-20T07:59:57.430Z,4972.00
2018-03-20T08:00:57.400Z,4972.00
2018-03-20T08:01:57.368Z,5024.00
2018-03-20T08:02:57.338Z,4988.00
2018-03-20T08:03:57.310Z,4976.00
2018-03-20T08:04:57.280Z,4892.00
2018-03-20T08:05:57.251Z,4868.00
2018-03-20T08:06:57.224Z,4924.00
2018-03-20T08:07:57.223Z,5168.00
2018-03-20T08:08:57.162Z,5128.00
2018-03-20T08:09:57.131Z,4984.00
2018-03-20T08:10:57.102Z,4816.00
2018-03-20T08:11:57.073Z,4920.00
2018-03-20T08:12:57.044Z,5128.00
2018-03-20T08:13:57.013Z,5044.00
2018-03-20T08:14:56.983Z,5276.00
2018-03-20T08:15:56.953Z,5516.00
2018-03-20T08:16:56.929Z,5676.00
2018-03-20T08:17:56.895Z,5516.00
2018-03-20T08:18:56.865Z,5204.00
2018-03-20T08:19:56.836Z,5120.00
2018-03-20T08:20:56.807Z,5168.00
2018-03-20T08:21:56.777Z,5168.00
2018-03-20T08:22:56.747Z,5192.00
2018-03-20T08:23:56.718Z,5304.00
2018-03-20T08:24:56.689Z,5400.00
2018-03-20T08:25:56.659Z,5748.00
2018-03-20T08:26:56.629Z,5816.00
2018-03-20T08:27:56.601Z,5884.00
2018-03-20T08:28:58.824Z,6096.00
2018-03-20T08:29:56.541Z,6164.00
2018-03-20T08:30:56.515Z,6288.00
2018-03-20T08:31:56.483Z,6384.00
2018-03-20T08:32:56.453Z,6532.00
2018-03-20T08:33:56.424Z,6640.00
2018-03-20T08:34:56.396Z,6744.00
2018-03-20T08:35:56.366Z,6780.00
2018-03-20T08:36:56.336Z,6736.00
2018-03-20T08:37:56.306Z,6692.00
2018-03-20T08:38:56.277Z,6660.00
2018-03-20T08:39:56.249Z,6612.00
2018-03-20T08:40:56.220Z,6608.00
2018-03-20T08:41:56.190Z,6700.00
2018-03-20T08:42:56.161Z,6768.00
2018-03-20T08:43:56.132Z,6960.00
2018-03-20T08:44:56.105Z,7072.00
2018-03-20T08:45:58.326Z,7056.00
2018-03-20T08:46:56.044Z,7048.00
2018-03-20T08:47:56.016Z,7136.00
2018-03-20T08:48:55.992Z,7252.00
2018-03-20T08:49:56.000Z,7172.00
2018-03-20T08:50:56.930Z,7076.00
2018-03-20T08:51:57.401Z,7128.00
2018-03-20T08:52:55.875Z,7112.00
2018-03-20T08:53:55.841Z,7248.00
2018-03-20T08:54:55.812Z,7428.00
2018-03-20T08:55:55.783Z,7516.00
2018-03-20T08:56:55.755Z,7540.00
2018-03-20T08:57:57.226Z,7508.00
2018-03-20T08:58:55.718Z,7440.00
2018-03-20T08:59:55.667Z,7396.00
2018-03-20T09:00:55.639Z,7524.00
2018-03-20T09:01:55.610Z,7652.00
2018-03-20T09:02:55.580Z,7952.00
2018-03-20T09:03:55.552Z,8172.00
2018-03-20T09:04:55.522Z,8252.00
2018-03-20T09:05:55.492Z,8296.00
2018-03-20T09:06:55.463Z,8340.00
2018-03-20T09:07:55.434Z,8276.00
2018-03-20T09:08:55.405Z,8272.00
2018-03-20T09:09:55.376Z,8380.00
2018-03-20T09:10:55.347Z,8572.00
2018-03-20T09:11:55.318Z,8620.00
2018-03-20T09:12:55.289Z,8640.00
2018-03-20T09:13:55.270Z,8556.00
2018-03-20T09:14:55.231Z,8592.00
2018-03-20T09:15:55.202Z,8624.00
2018-03-20T09:16:55.172Z,8628.00
2018-03-20T09:17:55.213Z,8644.00
2018-03-20T09:18:55.113Z,8596.00
2018-03-20T09:19:55.086Z,8440.00
2018-03-20T09:20:55.059Z,8384.00
2018-03-20T09:21:55.028Z,8488.00
2018-03-20T09:22:55.004Z,8632.00
2018-03-20T09:23:54.976Z,8584.00
2018-03-20T09:24:54.942Z,8564.00
2018-03-20T09:25:54.914Z,8748.00
2018-03-20T09:26:54.884Z,8828.00
2018-03-20T09:27:54.856Z,8680.00
2018-03-20T09:28:54.827Z,8720.00
2018-03-20T09:29:54.849Z,8848.00
2018-03-20T09:30:54.770Z,8664.00
2018-03-20T09:31:54.741Z,8376.00
2018-03-20T09:32:54.713Z,8144.00
2018-03-20T09:33:54.683Z,7740.00
2018-03-20T09:34:54.654Z,7120.00
2018-03-20T09:35:54.626Z,6784.00
2018-03-20T09:36:54.598Z,7100.00
2018-03-20T09:37:54.569Z,7076.00
2018-03-20T09:38:54.541Z,6808.00
2018-03-20T09:39:54.515Z,6536.00
2018-03-20T09:40:54.484Z,6420.00
2018-03-20T09:41:54.455Z,6408.00
2018-03-20T09:42:54.425Z,6260.00
2018-03-20T09:43:54.396Z,5996.00
2018-03-20T09:44:54.369Z,5924.00
2018-03-20T09:45:54.339Z,6320.00
2018-03-20T09:46:54.310Z,6992.00
2018-03-20T09:47:54.282Z,7168.00
2018-03-20T09:48:54.252Z,6804.00
2018-03-20T09:49:54.224Z,6904.00
2018-03-20T09:50:54.194Z,7544.00
2018-03-20T09:51:54.166Z,7664.00
2018-03-20T09:52:54.137Z,7920.00
2018-03-20T09:53:54.107Z,8072.00
2018-03-20T09:54:54.079Z,7972.00
2018-03-20T09:55:54.051Z,7660.00
2018-03-20T09:56:54.020Z,7200.00
2018-03-20T09:57:53.990Z,7012.00
2018-03-20T09:58:53.963Z,7000.00
2018-03-20T09:59:53.934Z,7332.00
2018-03-20T10:00:53.907Z,8136.00
2018-03-20T10:01:53.878Z,8956.00
2018-03-20T10:02:53.850Z,8428.00
2018-03-20T10:03:53.819Z,7936.00
2018-03-20T10:04:53.790Z,7660.00
2018-03-20T10:05:53.761Z,7936.00
2018-03-20T10:06:53.732Z,8380.00
2018-03-20T10:07:53.704Z,9156.00
2018-03-20T10:08:53.675Z,9940.00
2018-03-20T10:09:53.647Z,10520.00
2018-03-20T10:10:53.618Z,10608.00
2018-03-20T10:11:53.591Z,10580.00
2018-03-20T10:12:53.561Z,10560.00
2018-03-20T10:13:53.531Z,10360.00
2018-03-20T10:14:53.504Z,10252.00
2018-03-20T10:15:53.474Z,10656.00
2018-03-20T10:16:53.450Z,10200.00
2018-03-20T10:17:53.418Z,10272.00
2018-03-20T10:18:54.140Z,10420.00
2018-03-20T10:19:53.381Z,10644.00
2018-03-20T10:20:53.334Z,10888.00
2018-03-20T10:21:53.306Z,10804.00
2018-03-20T10:22:53.278Z,10732.00
2018-03-20T10:23:53.254Z,10340.00
2018-03-20T10:24:53.223Z,9944.00
2018-03-20T10:25:53.193Z,9928.00
2018-03-20T10:26:53.166Z,10416.00
2018-03-20T10:27:53.138Z,9824.00
2018-03-20T10:28:53.110Z,9624.00
2018-03-20T10:29:53.081Z,9032.00
2018-03-20T10:30:53.058Z,9348.00
2018-03-20T10:31:53.028Z,9868.00
2018-03-20T10:32:52.999Z,10392.00
2018-03-20T10:33:52.970Z,10316.00
2018-03-20T10:34:53.693Z,9900.00
2018-03-20T10:35:52.915Z,9420.00
2018-03-20T10:36:52.889Z,9048.00
2018-03-20T10:37:52.858Z,9100.00
2018-03-20T10:38:52.835Z,9140.00
2018-03-20T10:39:52.802Z,9308.00
2018-03-20T10:40:52.776Z,9072.00
2018-03-20T10:41:52.747Z,9520.00
2018-03-20T10:42:52.718Z,10212.00
2018-03-20T10:43:52.706Z,10376.00
2018-03-20T10:44:52.664Z,10288.00
2018-03-20T10:45:52.635Z,10148.00
2018-03-20T10:46:52.608Z,9688.00
2018-03-20T10:47:52.581Z,9676.00
2018-03-20T10:48:52.552Z,9416.00
2018-03-20T10:49:52.528Z,9560.00
2018-03-20T10:50:52.497Z,10340.00
2018-03-20T10:51:52.469Z,10276.00
2018-03-20T10:52:52.442Z,11204.00
2018-03-20T10:53:52.417Z,10916.00
2018-03-20T10:54:52.385Z,11060.00
2018-03-20T10:55:52.359Z,10936.00
2018-03-20T10:56:52.332Z,10728.00
2018-03-20T10:57:52.303Z,10348.00
2018-03-20T10:58:52.276Z,9824.00
2018-03-20T10:59:52.249Z,9408.00
2018-03-20T11:00:52.222Z,9392.00
2018-03-20T11:01:52.194Z,9448.00
2018-03-20T11:02:52.165Z,9256.00
2018-03-20T11:03:52.139Z,9264.00
2018-03-20T11:04:52.111Z,9320.00
2018-03-20T11:05:52.085Z,9368.00
2018-03-20T11:06:52.056Z,9396.00
2018-03-20T11:07:52.029Z,9388.00
2018-03-20T11:08:52.004Z,9584.00
2018-03-20T11:09:51.974Z,9924.00
2018-03-20T11:10:51.946Z,10172.00
2018-03-20T11:11:52.670Z,10332.00
2018-03-20T11:12:51.892Z,10396.00
2018-03-20T11:13:51.864Z,10512.00
2018-03-20T11:14:51.836Z,10432.00
2018-03-20T11:15:51.814Z,10260.00
2018-03-20T11:16:51.783Z,10236.00
2018-03-20T11:17:51.755Z,10264.00
2018-03-20T11:18:51.729Z,10324.00
2018-03-20T11:19:51.703Z,10428.00
2018-03-20T11:20:51.677Z,10208.00
2018-03-20T11:21:51.651Z,10132.00
2018-03-20T11:22:51.619Z,10092.00
2018-03-20T11:23:51.592Z,9940.00
2018-03-20T11:24:51.564Z,9784.00
2018-03-20T11:25:51.535Z,10092.00
2018-03-20T11:26:51.509Z,10500.00
2018-03-20T11:27:52.986Z,10756.00
2018-03-20T11:28:51.457Z,10928.00
2018-03-20T11:29:51.428Z,10984.00
2018-03-20T11:30:51.400Z,11216.00
2018-03-20T11:31:51.373Z,11364.00
2018-03-20T11:32:51.345Z,11280.00
2018-03-20T11:33:51.317Z,11260.00
2018-03-20T11:34:51.289Z,11100.00
2018-03-20T11:35:51.263Z,11060.00
2018-03-20T11:36:51.236Z,11092.00
2018-03-20T11:37:51.207Z,11112.00
2018-03-20T11:38:51.181Z,11340.00
2018-03-20T11:39:51.163Z,11064.00
2018-03-20T11:40:51.126Z,10536.00
2018-03-20T11:41:51.097Z,10244.00
2018-03-20T11:42:51.071Z,10132.00
2018-03-20T11:43:51.046Z,9868.00
2018-03-20T11:44:51.017Z,9588.00
2018-03-20T11:45:50.988Z,9340.00
2018-03-20T11:46:50.960Z,9284.00
2018-03-20T11:47:50.934Z,9152.00
2018-03-20T11:48:50.907Z,9104.00
2018-03-20T11:49:50.879Z,9268.00
2018-03-20T11:50:50.851Z,9516.00
2018-03-20T11:51:50.824Z,9620.00
2018-03-20T11:52:50.797Z,9288.00
2018-03-20T11:53:50.767Z,9068.00
2018-03-20T11:54:50.744Z,9168.00
2018-03-20T11:55:50.714Z,9312.00
2018-03-20T11:56:50.685Z,9412.00
2018-03-20T11:57:50.656Z,9256.00
2018-03-20T11:58:50.629Z,9044.00
2018-03-20T11:59:50.602Z,8932.00
2018-03-20T12:00:50.576Z,8900.00
2018-03-20T12:01:50.547Z,9072.00
2018-03-20T12:02:50.520Z,9336.00
2018-03-20T12:03:50.496Z,9464.00
2018-03-20T12:04:50.522Z,9440.00
2018-03-20T12:05:50.439Z,9156.00
2018-03-20T12:06:50.409Z,8980.00
2018-03-20T12:07:50.381Z,9352.00
2018-03-20T12:08:50.354Z,9696.00
2018-03-20T12:09:50.324Z,9660.00
2018-03-20T12:10:50.298Z,9804.00
2018-03-20T12:11:50.271Z,10160.00
2018-03-20T12:12:50.242Z,10280.00
2018-03-20T12:13:50.215Z,10572.00
2018-03-20T12:14:50.193Z,11080.00
2018-03-20T12:15:50.160Z,11224.00
2018-03-20T12:16:50.132Z,11228.00
2018-03-20T12:17:50.114Z,11332.00
2018-03-20T12:18:50.076Z,11548.00
2018-03-20T12:19:50.094Z,11696.00
2018-03-20T12:20:50.036Z,11904.00
2018-03-20T12:21:49.995Z,11884.00
2018-03-20T12:22:49.967Z,11800.00
2018-03-20T12:23:49.940Z,11664.00
2018-03-20T12:24:49.913Z,11716.00
2018-03-20T12:25:49.885Z,11668.00
2018-03-20T12:26:49.858Z,11840.00
2018-03-20T12:27:49.831Z,11756.00
2018-03-20T12:28:49.804Z,11552.00
2018-03-20T12:29:49.779Z,10928.00
2018-03-20T12:30:49.748Z,10708.00
2018-03-20T12:31:49.755Z,10900.00
2018-03-20T12:32:49.696Z,11240.00
2018-03-20T12:33:49.668Z,11384.00
2018-03-20T12:34:49.641Z,11536.00